sensor_id;sensor_type;location;lat;lon;timestamp;P1;durP1;ratioP1;P2;durP2;ratioP2
44276;SDS011;29973;43.742;1.236;2022-08-01T00:00:34;2.38;;;1.75;;
44276;SDS011;29973;43.742;1.236;2022-08-01T00:02:59;3.35;;;1.65;;
44276;SDS011;29973;43.742;1.236;2022-08-01T00:05:25;3.53;;;1.88;;
44276;SDS011;29973;43.742;1.236;2022-08-01T00:07:51;3.88;;;1.80;;
44276;SDS011;29973;43.742;1.236;2022-08-01T00:10:17;3.80;;;2.20;;
44276;SDS011;29973;43.742;1.236;2022-08-01T00:12:43;3.10;;;1.83;;
44276;SDS011;29973;43.742;1.236;2022-08-01T00:15:11;4.38;;;2.20;;
44276;SDS011;29973;43.742;1.236;2022-08-01T00:17:39;2.75;;;2.15;;
44276;SDS011;29973;43.742;1.236;2022-08-01T00:20:06;5.88;;;2.22;;
44276;SDS011;29973;43.742;1.236;2022-08-01T00:22:33;3.42;;;1.80;;
44276;SDS011;29973;43.742;1.236;2022-08-01T00:25:00;3.42;;;2.17;;
44276;SDS011;29973;43.742;1.236;2022-08-01T00:27:26;3.63;;;2.15;;
44276;SDS011;29973;43.742;1.236;2022-08-01T00:29:52;4.22;;;1.95;;
44276;SDS011;29973;43.742;1.236;2022-08-01T00:32:18;3.17;;;2.08;;
44276;SDS011;29973;43.742;1.236;2022-08-01T00:34:44;2.80;;;2.00;;
44276;SDS011;29973;43.742;1.236;2022-08-01T00:37:10;6.60;;;2.65;;
44276;SDS011;29973;43.742;1.236;2022-08-01T00:39:36;2.47;;;2.00;;
44276;SDS011;29973;43.742;1.236;2022-08-01T00:42:09;5.95;;;2.03;;
44276;SDS011;29973;43.742;1.236;2022-08-01T00:44:36;3.35;;;2.10;;
44276;SDS011;29973;43.742;1.236;2022-08-01T00:47:03;4.05;;;2.35;;
44276;SDS011;29973;43.742;1.236;2022-08-01T00:49:29;4.00;;;2.60;;
44276;SDS011;29973;43.742;1.236;2022-08-01T00:51:55;4.47;;;2.35;;
44276;SDS011;29973;43.742;1.236;2022-08-01T00:54:22;4.80;;;2.47;;
44276;SDS011;29973;43.742;1.236;2022-08-01T00:56:53;3.35;;;2.15;;
44276;SDS011;29973;43.742;1.236;2022-08-01T00:59:20;2.85;;;2.50;;
44276;SDS011;29973;43.742;1.236;2022-08-01T01:01:47;3.35;;;2.53;;
44276;SDS011;29973;43.742;1.236;2022-08-01T01:04:14;6.65;;;2.80;;
44276;SDS011;29973;43.742;1.236;2022-08-01T01:17:45;2.80;;;2.35;;
44276;SDS011;29973;43.742;1.236;2022-08-01T01:20:12;4.33;;;3.00;;
44276;SDS011;29973;43.742;1.236;2022-08-01T01:25:31;2.65;;;2.42;;
44276;SDS011;29973;43.742;1.236;2022-08-01T01:30:53;5.68;;;2.63;;
44276;SDS011;29973;43.742;1.236;2022-08-01T01:33:21;4.60;;;3.10;;
44276;SDS011;29973;43.742;1.236;2022-08-01T01:35:51;3.25;;;2.80;;
44276;SDS011;29973;43.742;1.236;2022-08-01T01:38:24;4.93;;;2.90;;
44276;SDS011;29973;43.742;1.236;2022-08-01T01:43:20;4.80;;;2.72;;
44276;SDS011;29973;43.742;1.236;2022-08-01T01:45:48;3.70;;;2.97;;
44276;SDS011;29973;43.742;1.236;2022-08-01T01:48:16;3.40;;;3.10;;
44276;SDS011;29973;43.742;1.236;2022-08-01T01:50:47;5.47;;;3.00;;
44276;SDS011;29973;43.742;1.236;2022-08-01T01:53:15;6.85;;;3.40;;
44276;SDS011;29973;43.742;1.236;2022-08-01T01:55:44;5.82;;;3.45;;
44276;SDS011;29973;43.742;1.236;2022-08-01T01:58:13;4.40;;;2.95;;
44276;SDS011;29973;43.742;1.236;2022-08-01T02:00:41;5.20;;;3.40;;
44276;SDS011;29973;43.742;1.236;2022-08-01T02:03:09;4.22;;;3.40;;
44276;SDS011;29973;43.742;1.236;2022-08-01T02:05:36;6.47;;;3.70;;
44276;SDS011;29973;43.742;1.236;2022-08-01T02:08:05;5.75;;;3.30;;
44276;SDS011;29973;43.742;1.236;2022-08-01T02:10:32;4.78;;;3.50;;
44276;SDS011;29973;43.742;1.236;2022-08-01T02:13:01;7.43;;;3.40;;
44276;SDS011;29973;43.742;1.236;2022-08-01T02:15:32;4.65;;;3.67;;
44276;SDS011;29973;43.742;1.236;2022-08-01T02:18:03;7.50;;;3.63;;
44276;SDS011;29973;43.742;1.236;2022-08-01T02:20:30;6.22;;;3.42;;
44276;SDS011;29973;43.742;1.236;2022-08-01T02:23:10;4.88;;;3.30;;
44276;SDS011;29973;43.742;1.236;2022-08-01T02:25:42;4.95;;;3.78;;
44276;SDS011;29973;43.742;1.236;2022-08-01T02:28:20;7.10;;;3.30;;
44276;SDS011;29973;43.742;1.236;2022-08-01T02:30:53;5.97;;;3.50;;
44276;SDS011;29973;43.742;1.236;2022-08-01T02:33:27;6.38;;;4.05;;
44276;SDS011;29973;43.742;1.236;2022-08-01T02:36:01;5.85;;;3.97;;
44276;SDS011;29973;43.742;1.236;2022-08-01T02:38:28;4.43;;;3.60;;
44276;SDS011;29973;43.742;1.236;2022-08-01T02:40:59;7.53;;;4.30;;
44276;SDS011;29973;43.742;1.236;2022-08-01T02:43:34;6.05;;;4.20;;
44276;SDS011;29973;43.742;1.236;2022-08-01T02:46:04;5.45;;;4.07;;
44276;SDS011;29973;43.742;1.236;2022-08-01T02:48:34;6.82;;;4.95;;
44276;SDS011;29973;43.742;1.236;2022-08-01T02:51:01;7.18;;;3.60;;
44276;SDS011;29973;43.742;1.236;2022-08-01T02:53:29;6.50;;;4.00;;
44276;SDS011;29973;43.742;1.236;2022-08-01T02:56:01;5.10;;;4.20;;
44276;SDS011;29973;43.742;1.236;2022-08-01T02:58:28;6.57;;;4.00;;
44276;SDS011;29973;43.742;1.236;2022-08-01T03:00:55;7.47;;;3.63;;
44276;SDS011;29973;43.742;1.236;2022-08-01T03:03:22;4.63;;;4.10;;
44276;SDS011;29973;43.742;1.236;2022-08-01T03:05:49;5.85;;;4.03;;
44276;SDS011;29973;43.742;1.236;2022-08-01T03:08:15;6.43;;;3.60;;
44276;SDS011;29973;43.742;1.236;2022-08-01T03:10:44;5.20;;;3.55;;
44276;SDS011;29973;43.742;1.236;2022-08-01T03:13:11;7.18;;;3.83;;
44276;SDS011;29973;43.742;1.236;2022-08-01T03:15:39;5.47;;;4.32;;
44276;SDS011;29973;43.742;1.236;2022-08-01T03:18:08;5.88;;;3.97;;
44276;SDS011;29973;43.742;1.236;2022-08-01T03:20:35;6.53;;;4.60;;
44276;SDS011;29973;43.742;1.236;2022-08-01T03:23:03;7.00;;;4.35;;
44276;SDS011;29973;43.742;1.236;2022-08-01T03:25:31;5.95;;;4.00;;
44276;SDS011;29973;43.742;1.236;2022-08-01T03:28:01;6.72;;;4.35;;
44276;SDS011;29973;43.742;1.236;2022-08-01T03:30:28;6.97;;;4.28;;
44276;SDS011;29973;43.742;1.236;2022-08-01T03:32:56;7.13;;;4.35;;
44276;SDS011;29973;43.742;1.236;2022-08-01T03:35:23;7.45;;;4.13;;
44276;SDS011;29973;43.742;1.236;2022-08-01T03:37:54;5.15;;;3.90;;
44276;SDS011;29973;43.742;1.236;2022-08-01T03:40:24;5.63;;;4.00;;
44276;SDS011;29973;43.742;1.236;2022-08-01T03:42:59;9.93;;;4.13;;
44276;SDS011;29973;43.742;1.236;2022-08-01T03:45:31;4.72;;;3.67;;
44276;SDS011;29973;43.742;1.236;2022-08-01T03:48:05;8.30;;;4.65;;
44276;SDS011;29973;43.742;1.236;2022-08-01T03:50:35;6.35;;;4.57;;
44276;SDS011;29973;43.742;1.236;2022-08-01T03:53:04;9.05;;;4.50;;
44276;SDS011;29973;43.742;1.236;2022-08-01T03:55:34;6.32;;;4.35;;
44276;SDS011;29973;43.742;1.236;2022-08-01T03:58:02;8.13;;;4.53;;
44276;SDS011;29973;43.742;1.236;2022-08-01T04:00:30;6.82;;;4.57;;
44276;SDS011;29973;43.742;1.236;2022-08-01T04:02:56;6.15;;;4.60;;
44276;SDS011;29973;43.742;1.236;2022-08-01T04:05:22;6.13;;;4.80;;
44276;SDS011;29973;43.742;1.236;2022-08-01T04:07:49;9.30;;;4.68;;
44276;SDS011;29973;43.742;1.236;2022-08-01T04:10:21;5.90;;;4.57;;
44276;SDS011;29973;43.742;1.236;2022-08-01T04:12:47;6.90;;;4.85;;
44276;SDS011;29973;43.742;1.236;2022-08-01T04:15:13;7.70;;;4.35;;
44276;SDS011;29973;43.742;1.236;2022-08-01T04:17:39;5.53;;;4.93;;
44276;SDS011;29973;43.742;1.236;2022-08-01T04:20:05;8.35;;;5.18;;
44276;SDS011;29973;43.742;1.236;2022-08-01T04:22:31;5.95;;;4.53;;
44276;SDS011;29973;43.742;1.236;2022-08-01T04:24:58;5.47;;;4.65;;
44276;SDS011;29973;43.742;1.236;2022-08-01T04:27:31;6.38;;;4.90;;
44276;SDS011;29973;43.742;1.236;2022-08-01T04:30:00;10.13;;;5.18;;
44276;SDS011;29973;43.742;1.236;2022-08-01T04:32:27;6.10;;;5.00;;
44276;SDS011;29973;43.742;1.236;2022-08-01T04:34:58;8.80;;;4.97;;
44276;SDS011;29973;43.742;1.236;2022-08-01T04:37:27;7.93;;;4.85;;
44276;SDS011;29973;43.742;1.236;2022-08-01T04:39:55;5.82;;;5.00;;
44276;SDS011;29973;43.742;1.236;2022-08-01T04:42:23;7.80;;;5.28;;
44276;SDS011;29973;43.742;1.236;2022-08-01T04:44:49;8.88;;;5.45;;
44276;SDS011;29973;43.742;1.236;2022-08-01T04:47:14;6.55;;;5.72;;
44276;SDS011;29973;43.742;1.236;2022-08-01T04:49:40;7.50;;;5.20;;
44276;SDS011;29973;43.742;1.236;2022-08-01T04:52:06;6.05;;;5.05;;
44276;SDS011;29973;43.742;1.236;2022-08-01T04:54:35;11.15;;;5.93;;
44276;SDS011;29973;43.742;1.236;2022-08-01T04:57:05;12.82;;;6.03;;
44276;SDS011;29973;43.742;1.236;2022-08-01T04:59:31;9.20;;;5.22;;
44276;SDS011;29973;43.742;1.236;2022-08-01T05:02:10;10.20;;;5.57;;
44276;SDS011;29973;43.742;1.236;2022-08-01T05:04:40;8.68;;;5.57;;
44276;SDS011;29973;43.742;1.236;2022-08-01T05:07:07;7.45;;;5.38;;
44276;SDS011;29973;43.742;1.236;2022-08-01T05:09:34;8.90;;;5.68;;
44276;SDS011;29973;43.742;1.236;2022-08-01T05:12:03;10.13;;;6.22;;
44276;SDS011;29973;43.742;1.236;2022-08-01T05:14:30;8.02;;;5.97;;
44276;SDS011;29973;43.742;1.236;2022-08-01T05:17:01;8.88;;;5.00;;
44276;SDS011;29973;43.742;1.236;2022-08-01T05:19:32;7.15;;;5.28;;
44276;SDS011;29973;43.742;1.236;2022-08-01T05:21:59;7.53;;;5.68;;
44276;SDS011;29973;43.742;1.236;2022-08-01T05:24:29;7.30;;;5.45;;
44276;SDS011;29973;43.742;1.236;2022-08-01T05:26:56;9.10;;;5.47;;
44276;SDS011;29973;43.742;1.236;2022-08-01T05:29:22;9.25;;;6.40;;
44276;SDS011;29973;43.742;1.236;2022-08-01T05:31:48;8.38;;;5.70;;
44276;SDS011;29973;43.742;1.236;2022-08-01T05:34:15;11.07;;;6.05;;
44276;SDS011;29973;43.742;1.236;2022-08-01T05:36:40;10.35;;;6.00;;
44276;SDS011;29973;43.742;1.236;2022-08-01T05:39:06;10.35;;;7.05;;
44276;SDS011;29973;43.742;1.236;2022-08-01T05:41:32;10.07;;;6.57;;
44276;SDS011;29973;43.742;1.236;2022-08-01T05:43:58;9.63;;;5.90;;
44276;SDS011;29973;43.742;1.236;2022-08-01T05:46:24;11.10;;;7.13;;
44276;SDS011;29973;43.742;1.236;2022-08-01T05:48:50;7.57;;;6.25;;
44276;SDS011;29973;43.742;1.236;2022-08-01T05:51:15;10.43;;;7.00;;
44276;SDS011;29973;43.742;1.236;2022-08-01T05:53:41;9.80;;;6.82;;
44276;SDS011;29973;43.742;1.236;2022-08-01T05:56:07;10.85;;;7.35;;
44276;SDS011;29973;43.742;1.236;2022-08-01T05:58:33;10.10;;;6.82;;
44276;SDS011;29973;43.742;1.236;2022-08-01T06:00:58;10.10;;;6.88;;
44276;SDS011;29973;43.742;1.236;2022-08-01T06:03:24;8.43;;;6.15;;
44276;SDS011;29973;43.742;1.236;2022-08-01T06:05:53;10.75;;;7.05;;
44276;SDS011;29973;43.742;1.236;2022-08-01T06:08:19;14.10;;;7.28;;
44276;SDS011;29973;43.742;1.236;2022-08-01T06:10:44;9.00;;;7.47;;
44276;SDS011;29973;43.742;1.236;2022-08-01T06:13:10;10.63;;;7.25;;
44276;SDS011;29973;43.742;1.236;2022-08-01T06:15:36;13.80;;;7.10;;
44276;SDS011;29973;43.742;1.236;2022-08-01T06:18:01;9.95;;;7.32;;
44276;SDS011;29973;43.742;1.236;2022-08-01T06:20:28;11.00;;;7.78;;
44276;SDS011;29973;43.742;1.236;2022-08-01T06:22:54;13.60;;;8.40;;
44276;SDS011;29973;43.742;1.236;2022-08-01T06:25:20;13.02;;;7.88;;
44276;SDS011;29973;43.742;1.236;2022-08-01T06:27:45;14.00;;;8.23;;
44276;SDS011;29973;43.742;1.236;2022-08-01T06:30:11;12.10;;;7.78;;
44276;SDS011;29973;43.742;1.236;2022-08-01T06:32:37;13.88;;;7.35;;
44276;SDS011;29973;43.742;1.236;2022-08-01T06:35:03;13.10;;;7.82;;
44276;SDS011;29973;43.742;1.236;2022-08-01T06:37:32;15.27;;;8.52;;
44276;SDS011;29973;43.742;1.236;2022-08-01T06:40:05;11.93;;;7.70;;
44276;SDS011;29973;43.742;1.236;2022-08-01T06:42:35;11.95;;;7.88;;
44276;SDS011;29973;43.742;1.236;2022-08-01T06:45:05;14.10;;;6.65;;
44276;SDS011;29973;43.742;1.236;2022-08-01T06:47:33;14.57;;;7.90;;
44276;SDS011;29973;43.742;1.236;2022-08-01T06:49:59;12.15;;;7.88;;
44276;SDS011;29973;43.742;1.236;2022-08-01T06:52:25;13.30;;;8.23;;
44276;SDS011;29973;43.742;1.236;2022-08-01T06:54:51;12.60;;;8.18;;
44276;SDS011;29973;43.742;1.236;2022-08-01T06:57:17;12.15;;;7.78;;
44276;SDS011;29973;43.742;1.236;2022-08-01T06:59:43;9.88;;;7.65;;
44276;SDS011;29973;43.742;1.236;2022-08-01T07:02:09;12.95;;;7.95;;
44276;SDS011;29973;43.742;1.236;2022-08-01T07:04:34;11.95;;;7.93;;
44276;SDS011;29973;43.742;1.236;2022-08-01T07:07:00;12.55;;;8.23;;
44276;SDS011;29973;43.742;1.236;2022-08-01T07:09:26;10.73;;;7.70;;
44276;SDS011;29973;43.742;1.236;2022-08-01T07:11:52;10.23;;;8.25;;
44276;SDS011;29973;43.742;1.236;2022-08-01T07:14:20;10.50;;;7.85;;
44276;SDS011;29973;43.742;1.236;2022-08-01T07:16:46;12.73;;;8.63;;
44276;SDS011;29973;43.742;1.236;2022-08-01T07:19:12;12.80;;;8.15;;
44276;SDS011;29973;43.742;1.236;2022-08-01T07:21:38;14.27;;;8.50;;
44276;SDS011;29973;43.742;1.236;2022-08-01T07:24:05;10.55;;;7.55;;
44276;SDS011;29973;43.742;1.236;2022-08-01T07:26:31;11.23;;;7.22;;
44276;SDS011;29973;43.742;1.236;2022-08-01T07:28:57;11.38;;;7.38;;
44276;SDS011;29973;43.742;1.236;2022-08-01T07:31:23;12.75;;;7.28;;
44276;SDS011;29973;43.742;1.236;2022-08-01T07:33:49;13.02;;;8.15;;
44276;SDS011;29973;43.742;1.236;2022-08-01T07:36:15;15.02;;;7.95;;
44276;SDS011;29973;43.742;1.236;2022-08-01T07:38:44;13.23;;;8.30;;
44276;SDS011;29973;43.742;1.236;2022-08-01T07:41:10;13.15;;;8.25;;
44276;SDS011;29973;43.742;1.236;2022-08-01T07:43:39;9.68;;;6.82;;
44276;SDS011;29973;43.742;1.236;2022-08-01T07:46:05;10.75;;;7.07;;
44276;SDS011;29973;43.742;1.236;2022-08-01T07:48:31;9.90;;;7.40;;
44276;SDS011;29973;43.742;1.236;2022-08-01T07:50:57;12.23;;;6.97;;
44276;SDS011;29973;43.742;1.236;2022-08-01T07:53:23;8.63;;;7.50;;
44276;SDS011;29973;43.742;1.236;2022-08-01T07:55:49;10.48;;;7.82;;
44276;SDS011;29973;43.742;1.236;2022-08-01T07:58:15;11.27;;;7.72;;
44276;SDS011;29973;43.742;1.236;2022-08-01T08:00:41;13.63;;;8.27;;
44276;SDS011;29973;43.742;1.236;2022-08-01T08:03:07;15.35;;;7.20;;
44276;SDS011;29973;43.742;1.236;2022-08-01T08:05:33;13.10;;;6.90;;
44276;SDS011;29973;43.742;1.236;2022-08-01T08:08:04;8.65;;;6.47;;
44276;SDS011;29973;43.742;1.236;2022-08-01T08:10:30;11.60;;;7.03;;
44276;SDS011;29973;43.742;1.236;2022-08-01T08:12:56;11.30;;;8.32;;
44276;SDS011;29973;43.742;1.236;2022-08-01T08:15:22;7.95;;;7.15;;
44276;SDS011;29973;43.742;1.236;2022-08-01T08:17:48;11.32;;;7.18;;
44276;SDS011;29973;43.742;1.236;2022-08-01T08:20:16;10.63;;;7.20;;
44276;SDS011;29973;43.742;1.236;2022-08-01T08:22:42;12.63;;;7.15;;
44276;SDS011;29973;43.742;1.236;2022-08-01T08:25:08;10.65;;;6.40;;
44276;SDS011;29973;43.742;1.236;2022-08-01T08:27:35;9.98;;;6.90;;
44276;SDS011;29973;43.742;1.236;2022-08-01T08:30:01;11.70;;;7.00;;
44276;SDS011;29973;43.742;1.236;2022-08-01T08:32:30;9.30;;;6.97;;
44276;SDS011;29973;43.742;1.236;2022-08-01T08:34:56;12.05;;;7.10;;
44276;SDS011;29973;43.742;1.236;2022-08-01T08:37:22;9.10;;;5.78;;
44276;SDS011;29973;43.742;1.236;2022-08-01T08:39:48;9.55;;;6.60;;
44276;SDS011;29973;43.742;1.236;2022-08-01T08:42:14;13.15;;;7.07;;
44276;SDS011;29973;43.742;1.236;2022-08-01T08:44:40;8.13;;;6.75;;
44276;SDS011;29973;43.742;1.236;2022-08-01T08:47:07;9.15;;;6.43;;
44276;SDS011;29973;43.742;1.236;2022-08-01T08:49:34;9.10;;;6.70;;
44276;SDS011;29973;43.742;1.236;2022-08-01T08:52:04;9.85;;;6.57;;
44276;SDS011;29973;43.742;1.236;2022-08-01T08:54:31;10.30;;;6.90;;
44276;SDS011;29973;43.742;1.236;2022-08-01T08:56:58;7.97;;;7.18;;
44276;SDS011;29973;43.742;1.236;2022-08-01T08:59:26;13.50;;;7.28;;
44276;SDS011;29973;43.742;1.236;2022-08-01T09:01:53;7.78;;;6.97;;
44276;SDS011;29973;43.742;1.236;2022-08-01T09:04:22;8.45;;;5.55;;
44276;SDS011;29973;43.742;1.236;2022-08-01T09:06:49;10.07;;;6.53;;
44276;SDS011;29973;43.742;1.236;2022-08-01T09:09:15;10.32;;;7.18;;
44276;SDS011;29973;43.742;1.236;2022-08-01T09:11:40;10.35;;;6.40;;
44276;SDS011;29973;43.742;1.236;2022-08-01T09:14:13;9.82;;;6.40;;
44276;SDS011;29973;43.742;1.236;2022-08-01T09:16:47;11.20;;;6.22;;
44276;SDS011;29973;43.742;1.236;2022-08-01T09:19:44;8.07;;;5.95;;
44276;SDS011;29973;43.742;1.236;2022-08-01T09:22:17;6.90;;;5.90;;
44276;SDS011;29973;43.742;1.236;2022-08-01T09:27:36;10.90;;;6.53;;
44276;SDS011;29973;43.742;1.236;2022-08-01T09:30:08;8.55;;;6.25;;
44276;SDS011;29973;43.742;1.236;2022-08-01T09:32:54;8.87;;;6.70;;
44276;SDS011;29973;43.742;1.236;2022-08-01T09:35:23;9.85;;;6.78;;
44276;SDS011;29973;43.742;1.236;2022-08-01T09:43:16;12.07;;;7.05;;
44276;SDS011;29973;43.742;1.236;2022-08-01T09:45:43;11.10;;;6.25;;
44276;SDS011;29973;43.742;1.236;2022-08-01T09:48:09;9.18;;;6.10;;
44276;SDS011;29973;43.742;1.236;2022-08-01T09:50:45;8.63;;;6.53;;
44276;SDS011;29973;43.742;1.236;2022-08-01T09:53:12;11.55;;;7.05;;
44276;SDS011;29973;43.742;1.236;2022-08-01T09:55:41;7.40;;;6.47;;
44276;SDS011;29973;43.742;1.236;2022-08-01T09:58:08;8.40;;;6.20;;
44276;SDS011;29973;43.742;1.236;2022-08-01T10:00:36;9.50;;;6.13;;
44276;SDS011;29973;43.742;1.236;2022-08-01T10:03:21;10.18;;;6.57;;
44276;SDS011;29973;43.742;1.236;2022-08-01T10:05:48;11.18;;;6.55;;
44276;SDS011;29973;43.742;1.236;2022-08-01T10:08:16;7.85;;;6.03;;
44276;SDS011;29973;43.742;1.236;2022-08-01T10:11:03;10.13;;;6.60;;
44276;SDS011;29973;43.742;1.236;2022-08-01T10:13:31;10.30;;;6.43;;
44276;SDS011;29973;43.742;1.236;2022-08-01T10:15:57;8.52;;;6.45;;
44276;SDS011;29973;43.742;1.236;2022-08-01T10:18:25;11.25;;;7.10;;
44276;SDS011;29973;43.742;1.236;2022-08-01T10:20:53;10.57;;;7.05;;
44276;SDS011;29973;43.742;1.236;2022-08-01T10:23:19;9.93;;;6.75;;
44276;SDS011;29973;43.742;1.236;2022-08-01T10:25:46;12.20;;;6.25;;
44276;SDS011;29973;43.742;1.236;2022-08-01T10:28:14;8.98;;;6.10;;
44276;SDS011;29973;43.742;1.236;2022-08-01T10:30:41;7.13;;;5.97;;
44276;SDS011;29973;43.742;1.236;2022-08-01T10:33:09;9.48;;;6.70;;
44276;SDS011;29973;43.742;1.236;2022-08-01T10:35:36;8.45;;;6.78;;
44276;SDS011;29973;43.742;1.236;2022-08-01T10:38:04;10.88;;;6.60;;
44276;SDS011;29973;43.742;1.236;2022-08-01T10:40:31;9.80;;;6.53;;
44276;SDS011;29973;43.742;1.236;2022-08-01T10:42:57;8.70;;;6.63;;
44276;SDS011;29973;43.742;1.236;2022-08-01T10:45:23;7.50;;;6.25;;
44276;SDS011;29973;43.742;1.236;2022-08-01T10:48:14;17.23;;;6.85;;
44276;SDS011;29973;43.742;1.236;2022-08-01T10:50:41;16.02;;;6.72;;
44276;SDS011;29973;43.742;1.236;2022-08-01T10:55:47;8.80;;;5.93;;
44276;SDS011;29973;43.742;1.236;2022-08-01T10:58:35;7.15;;;5.35;;
44276;SDS011;29973;43.742;1.236;2022-08-01T11:03:38;11.73;;;6.25;;
44276;SDS011;29973;43.742;1.236;2022-08-01T11:06:03;6.82;;;5.78;;
44276;SDS011;29973;43.742;1.236;2022-08-01T11:08:30;6.80;;;5.47;;
44276;SDS011;29973;43.742;1.236;2022-08-01T11:11:01;7.65;;;5.53;;
44276;SDS011;29973;43.742;1.236;2022-08-01T11:16:43;11.32;;;5.68;;
44276;SDS011;29973;43.742;1.236;2022-08-01T11:19:09;7.80;;;5.38;;
44276;SDS011;29973;43.742;1.236;2022-08-01T11:25:08;7.65;;;5.75;;
44276;SDS011;29973;43.742;1.236;2022-08-01T11:32:54;10.55;;;5.20;;
44276;SDS011;29973;43.742;1.236;2022-08-01T11:35:24;5.80;;;5.20;;
44276;SDS011;29973;43.742;1.236;2022-08-01T11:37:52;7.38;;;5.28;;
44276;SDS011;29973;43.742;1.236;2022-08-01T11:40:21;11.18;;;5.35;;
44276;SDS011;29973;43.742;1.236;2022-08-01T11:42:49;7.40;;;5.35;;
44276;SDS011;29973;43.742;1.236;2022-08-01T11:45:49;6.60;;;4.50;;
44276;SDS011;29973;43.742;1.236;2022-08-01T11:48:19;7.78;;;4.63;;
44276;SDS011;29973;43.742;1.236;2022-08-01T11:50:46;6.43;;;5.03;;
44276;SDS011;29973;43.742;1.236;2022-08-01T11:53:12;6.75;;;5.95;;
44276;SDS011;29973;43.742;1.236;2022-08-01T11:55:52;11.30;;;4.93;;
44276;SDS011;29973;43.742;1.236;2022-08-01T11:58:22;7.75;;;5.18;;
44276;SDS011;29973;43.742;1.236;2022-08-01T12:00:53;5.97;;;4.63;;
44276;SDS011;29973;43.742;1.236;2022-08-01T12:05:53;5.93;;;4.93;;
44276;SDS011;29973;43.742;1.236;2022-08-01T12:08:27;6.57;;;4.75;;
44276;SDS011;29973;43.742;1.236;2022-08-01T12:11:01;8.93;;;4.88;;
44276;SDS011;29973;43.742;1.236;2022-08-01T12:13:42;7.03;;;4.53;;
44276;SDS011;29973;43.742;1.236;2022-08-01T12:16:10;6.30;;;4.50;;
44276;SDS011;29973;43.742;1.236;2022-08-01T12:18:42;6.93;;;4.72;;
44276;SDS011;29973;43.742;1.236;2022-08-01T12:21:09;8.48;;;3.88;;
44276;SDS011;29973;43.742;1.236;2022-08-01T12:23:34;8.80;;;4.43;;
44276;SDS011;29973;43.742;1.236;2022-08-01T12:26:00;6.47;;;4.25;;
44276;SDS011;29973;43.742;1.236;2022-08-01T12:28:28;5.15;;;3.90;;
44276;SDS011;29973;43.742;1.236;2022-08-01T12:30:54;7.40;;;3.50;;
44276;SDS011;29973;43.742;1.236;2022-08-01T12:33:20;5.63;;;3.00;;
44276;SDS011;29973;43.742;1.236;2022-08-01T12:35:46;6.78;;;3.15;;
44276;SDS011;29973;43.742;1.236;2022-08-01T12:38:16;5.15;;;3.65;;
44276;SDS011;29973;43.742;1.236;2022-08-01T12:40:44;4.78;;;4.00;;
44276;SDS011;29973;43.742;1.236;2022-08-01T12:43:17;6.28;;;3.80;;
44276;SDS011;29973;43.742;1.236;2022-08-01T12:45:44;4.35;;;3.95;;
44276;SDS011;29973;43.742;1.236;2022-08-01T12:50:44;8.07;;;3.05;;
44276;SDS011;29973;43.742;1.236;2022-08-01T12:53:13;3.70;;;3.10;;
44276;SDS011;29973;43.742;1.236;2022-08-01T12:55:47;5.13;;;2.75;;
44276;SDS011;29973;43.742;1.236;2022-08-01T12:58:14;6.32;;;2.97;;
44276;SDS011;29973;43.742;1.236;2022-08-01T13:00:42;8.13;;;3.22;;
44276;SDS011;29973;43.742;1.236;2022-08-01T13:03:14;3.10;;;2.60;;
44276;SDS011;29973;43.742;1.236;2022-08-01T13:08:15;5.10;;;2.92;;
44276;SDS011;29973;43.742;1.236;2022-08-01T13:10:46;3.47;;;2.65;;
44276;SDS011;29973;43.742;1.236;2022-08-01T13:13:12;5.15;;;3.00;;
44276;SDS011;29973;43.742;1.236;2022-08-01T13:15:39;3.40;;;2.70;;
44276;SDS011;29973;43.742;1.236;2022-08-01T13:24:00;4.60;;;2.80;;
44276;SDS011;29973;43.742;1.236;2022-08-01T13:26:44;6.35;;;2.70;;
44276;SDS011;29973;43.742;1.236;2022-08-01T13:29:14;4.47;;;3.05;;
44276;SDS011;29973;43.742;1.236;2022-08-01T13:31:45;8.52;;;2.72;;
44276;SDS011;29973;43.742;1.236;2022-08-01T13:34:11;4.80;;;2.25;;
44276;SDS011;29973;43.742;1.236;2022-08-01T13:36:37;3.95;;;2.92;;
44276;SDS011;29973;43.742;1.236;2022-08-01T13:39:04;5.40;;;2.70;;
44276;SDS011;29973;43.742;1.236;2022-08-01T13:41:49;4.57;;;3.13;;
44276;SDS011;29973;43.742;1.236;2022-08-01T13:44:16;4.18;;;2.97;;
44276;SDS011;29973;43.742;1.236;2022-08-01T13:46:42;3.28;;;2.35;;
44276;SDS011;29973;43.742;1.236;2022-08-01T13:49:10;5.18;;;2.40;;
44276;SDS011;29973;43.742;1.236;2022-08-01T13:51:36;4.60;;;2.78;;
44276;SDS011;29973;43.742;1.236;2022-08-01T13:54:03;6.05;;;2.90;;
44276;SDS011;29973;43.742;1.236;2022-08-01T13:56:29;10.07;;;2.88;;
44276;SDS011;29973;43.742;1.236;2022-08-01T13:58:56;4.47;;;3.03;;
44276;SDS011;29973;43.742;1.236;2022-08-01T14:01:22;3.42;;;2.60;;
44276;SDS011;29973;43.742;1.236;2022-08-01T14:03:48;5.28;;;2.55;;
44276;SDS011;29973;43.742;1.236;2022-08-01T14:06:16;5.82;;;2.55;;
44276;SDS011;29973;43.742;1.236;2022-08-01T14:08:43;4.50;;;2.63;;
44276;SDS011;29973;43.742;1.236;2022-08-01T14:11:10;6.88;;;2.38;;
44276;SDS011;29973;43.742;1.236;2022-08-01T14:13:36;7.57;;;2.58;;
44276;SDS011;29973;43.742;1.236;2022-08-01T14:16:04;4.07;;;2.70;;
44276;SDS011;29973;43.742;1.236;2022-08-01T14:18:30;5.35;;;2.20;;
44276;SDS011;29973;43.742;1.236;2022-08-01T14:20:57;5.18;;;2.40;;
44276;SDS011;29973;43.742;1.236;2022-08-01T14:23:22;4.82;;;2.17;;
44276;SDS011;29973;43.742;1.236;2022-08-01T14:25:48;4.10;;;2.20;;
44276;SDS011;29973;43.742;1.236;2022-08-01T14:28:14;3.00;;;2.20;;
44276;SDS011;29973;43.742;1.236;2022-08-01T14:30:40;3.53;;;1.85;;
44276;SDS011;29973;43.742;1.236;2022-08-01T14:33:09;5.35;;;2.22;;
44276;SDS011;29973;43.742;1.236;2022-08-01T14:35:35;3.03;;;2.30;;
44276;SDS011;29973;43.742;1.236;2022-08-01T14:38:01;4.95;;;2.35;;
44276;SDS011;29973;43.742;1.236;2022-08-01T14:40:27;4.28;;;2.08;;
44276;SDS011;29973;43.742;1.236;2022-08-01T14:42:53;3.33;;;2.17;;
44276;SDS011;29973;43.742;1.236;2022-08-01T14:45:19;2.22;;;1.98;;
44276;SDS011;29973;43.742;1.236;2022-08-01T14:47:45;4.43;;;2.20;;
44276;SDS011;29973;43.742;1.236;2022-08-01T14:50:12;3.30;;;2.17;;
44276;SDS011;29973;43.742;1.236;2022-08-01T14:52:39;2.15;;;1.73;;
44276;SDS011;29973;43.742;1.236;2022-08-01T14:55:07;2.65;;;1.70;;
44276;SDS011;29973;43.742;1.236;2022-08-01T14:57:34;2.75;;;1.88;;
44276;SDS011;29973;43.742;1.236;2022-08-01T15:00:00;3.25;;;1.60;;
44276;SDS011;29973;43.742;1.236;2022-08-01T15:02:26;1.92;;;1.50;;
44276;SDS011;29973;43.742;1.236;2022-08-01T15:04:51;3.88;;;1.83;;
44276;SDS011;29973;43.742;1.236;2022-08-01T15:07:18;3.13;;;1.58;;
44276;SDS011;29973;43.742;1.236;2022-08-01T15:09:44;3.60;;;1.48;;
44276;SDS011;29973;43.742;1.236;2022-08-01T15:12:10;1.50;;;1.40;;
44276;SDS011;29973;43.742;1.236;2022-08-01T15:14:36;2.33;;;1.50;;
44276;SDS011;29973;43.742;1.236;2022-08-01T15:19:49;1.98;;;1.45;;
44276;SDS011;29973;43.742;1.236;2022-08-01T15:22:16;2.97;;;1.33;;
44276;SDS011;29973;43.742;1.236;2022-08-01T15:24:43;3.97;;;1.70;;
44276;SDS011;29973;43.742;1.236;2022-08-01T15:27:09;2.38;;;1.63;;
44276;SDS011;29973;43.742;1.236;2022-08-01T15:29:35;2.40;;;1.40;;
44276;SDS011;29973;43.742;1.236;2022-08-01T15:32:02;2.22;;;1.67;;
44276;SDS011;29973;43.742;1.236;2022-08-01T15:34:29;2.60;;;1.50;;
44276;SDS011;29973;43.742;1.236;2022-08-01T15:36:56;4.00;;;1.80;;
44276;SDS011;29973;43.742;1.236;2022-08-01T15:39:22;2.50;;;1.42;;
44276;SDS011;29973;43.742;1.236;2022-08-01T15:41:48;1.52;;;1.42;;
44276;SDS011;29973;43.742;1.236;2022-08-01T15:44:14;4.00;;;1.50;;
44276;SDS011;29973;43.742;1.236;2022-08-01T15:46:43;3.77;;;1.93;;
44276;SDS011;29973;43.742;1.236;2022-08-01T15:49:08;3.47;;;1.60;;